sensor_id;sensor_type;location;lat;lon;timestamp;P1;durP1;ratioP1;P2;durP2;ratioP2
27612;SDS011;15036;48.094;-1.690;2023-07-13T00:01:12;5.95;;;2.25;;
27612;SDS011;15036;48.094;-1.690;2023-07-13T00:03:39;4.80;;;2.00;;
27612;SDS011;15036;48.094;-1.690;2023-07-13T00:06:06;5.75;;;2.63;;
27612;SDS011;15036;48.094;-1.690;2023-07-13T00:08:32;5.55;;;2.10;;
27612;SDS011;15036;48.094;-1.690;2023-07-13T00:10:58;7.80;;;2.47;;
27612;SDS011;15036;48.094;-1.690;2023-07-13T00:13:23;5.10;;;2.15;;
27612;SDS011;15036;48.094;-1.690;2023-07-13T00:15:49;7.82;;;2.40;;
27612;SDS011;15036;48.094;-1.690;2023-07-13T00:18:14;5.68;;;2.40;;
27612;SDS011;15036;48.094;-1.690;2023-07-13T00:20:39;5.93;;;2.50;;
27612;SDS011;15036;48.094;-1.690;2023-07-13T00:23:06;6.22;;;2.03;;
27612;SDS011;15036;48.094;-1.690;2023-07-13T00:25:32;8.30;;;2.42;;
27612;SDS011;15036;48.094;-1.690;2023-07-13T00:27:57;4.75;;;2.15;;
27612;SDS011;15036;48.094;-1.690;2023-07-13T00:30:22;5.53;;;1.90;;
27612;SDS011;15036;48.094;-1.690;2023-07-13T00:32:49;6.45;;;2.00;;
27612;SDS011;15036;48.094;-1.690;2023-07-13T00:35:14;8.80;;;2.60;;
27612;SDS011;15036;48.094;-1.690;2023-07-13T00:37:41;6.25;;;2.00;;
27612;SDS011;15036;48.094;-1.690;2023-07-13T00:40:07;6.60;;;2.10;;
27612;SDS011;15036;48.094;-1.690;2023-07-13T00:42:34;4.95;;;1.83;;
27612;SDS011;15036;48.094;-1.690;2023-07-13T00:47:37;8.18;;;2.58;;
27612;SDS011;15036;48.094;-1.690;2023-07-13T00:50:07;6.70;;;2.05;;
27612;SDS011;15036;48.094;-1.690;2023-07-13T00:52:40;8.27;;;2.35;;
27612;SDS011;15036;48.094;-1.690;2023-07-13T00:55:07;6.20;;;2.10;;
27612;SDS011;15036;48.094;-1.690;2023-07-13T00:57:34;5.00;;;2.22;;
27612;SDS011;15036;48.094;-1.690;2023-07-13T01:00:01;7.13;;;2.75;;
27612;SDS011;15036;48.094;-1.690;2023-07-13T01:02:34;8.00;;;2.33;;
27612;SDS011;15036;48.094;-1.690;2023-07-13T01:05:04;7.95;;;2.42;;
27612;SDS011;15036;48.094;-1.690;2023-07-13T01:07:35;10.57;;;2.58;;
27612;SDS011;15036;48.094;-1.690;2023-07-13T01:10:02;7.00;;;2.33;;
27612;SDS011;15036;48.094;-1.690;2023-07-13T01:12:28;7.13;;;2.20;;
27612;SDS011;15036;48.094;-1.690;2023-07-13T01:14:57;7.35;;;2.42;;
27612;SDS011;15036;48.094;-1.690;2023-07-13T01:17:23;7.35;;;2.40;;
27612;SDS011;15036;48.094;-1.690;2023-07-13T01:19:49;8.18;;;2.45;;
27612;SDS011;15036;48.094;-1.690;2023-07-13T01:22:16;5.72;;;2.55;;
27612;SDS011;15036;48.094;-1.690;2023-07-13T01:24:45;6.13;;;2.00;;
27612;SDS011;15036;48.094;-1.690;2023-07-13T01:27:12;6.68;;;2.33;;
27612;SDS011;15036;48.094;-1.690;2023-07-13T01:29:40;6.97;;;2.33;;
27612;SDS011;15036;48.094;-1.690;2023-07-13T01:32:10;7.40;;;2.78;;
27612;SDS011;15036;48.094;-1.690;2023-07-13T01:34:38;6.03;;;2.50;;
27612;SDS011;15036;48.094;-1.690;2023-07-13T01:37:07;5.13;;;2.70;;
27612;SDS011;15036;48.094;-1.690;2023-07-13T01:39:33;6.65;;;2.38;;
27612;SDS011;15036;48.094;-1.690;2023-07-13T01:41:59;6.28;;;2.80;;
27612;SDS011;15036;48.094;-1.690;2023-07-13T01:44:25;5.22;;;2.20;;
27612;SDS011;15036;48.094;-1.690;2023-07-13T01:46:51;6.10;;;2.22;;
27612;SDS011;15036;48.094;-1.690;2023-07-13T01:49:16;7.47;;;2.72;;
27612;SDS011;15036;48.094;-1.690;2023-07-13T01:51:41;7.50;;;2.40;;
27612;SDS011;15036;48.094;-1.690;2023-07-13T01:54:07;7.20;;;2.75;;
27612;SDS011;15036;48.094;-1.690;2023-07-13T01:56:32;8.13;;;2.42;;
27612;SDS011;15036;48.094;-1.690;2023-07-13T01:58:57;7.97;;;2.67;;
27612;SDS011;15036;48.094;-1.690;2023-07-13T02:01:23;7.40;;;2.70;;
27612;SDS011;15036;48.094;-1.690;2023-07-13T02:03:48;8.60;;;2.67;;
27612;SDS011;15036;48.094;-1.690;2023-07-13T02:06:13;6.60;;;2.30;;
27612;SDS011;15036;48.094;-1.690;2023-07-13T02:08:40;7.38;;;2.95;;
27612;SDS011;15036;48.094;-1.690;2023-07-13T02:11:06;8.15;;;2.70;;
27612;SDS011;15036;48.094;-1.690;2023-07-13T02:13:31;10.25;;;3.05;;
27612;SDS011;15036;48.094;-1.690;2023-07-13T02:15:56;5.68;;;2.47;;
27612;SDS011;15036;48.094;-1.690;2023-07-13T02:18:22;11.68;;;3.08;;
27612;SDS011;15036;48.094;-1.690;2023-07-13T02:20:47;8.05;;;2.53;;
27612;SDS011;15036;48.094;-1.690;2023-07-13T02:23:13;9.13;;;2.65;;
27612;SDS011;15036;48.094;-1.690;2023-07-13T02:25:38;8.57;;;3.00;;
27612;SDS011;15036;48.094;-1.690;2023-07-13T02:28:03;8.40;;;2.88;;
27612;SDS011;15036;48.094;-1.690;2023-07-13T02:30:29;7.93;;;3.05;;
27612;SDS011;15036;48.094;-1.690;2023-07-13T02:32:55;7.97;;;2.83;;
27612;SDS011;15036;48.094;-1.690;2023-07-13T02:35:21;7.38;;;2.53;;
27612;SDS011;15036;48.094;-1.690;2023-07-13T02:37:46;8.30;;;3.03;;
27612;SDS011;15036;48.094;-1.690;2023-07-13T02:40:11;9.18;;;3.22;;
27612;SDS011;15036;48.094;-1.690;2023-07-13T02:42:37;8.07;;;2.55;;
27612;SDS011;15036;48.094;-1.690;2023-07-13T02:45:02;12.10;;;3.22;;
27612;SDS011;15036;48.094;-1.690;2023-07-13T02:47:28;11.32;;;3.00;;
27612;SDS011;15036;48.094;-1.690;2023-07-13T02:49:53;6.88;;;2.60;;
27612;SDS011;15036;48.094;-1.690;2023-07-13T02:52:19;8.93;;;2.60;;
27612;SDS011;15036;48.094;-1.690;2023-07-13T02:54:44;8.93;;;2.85;;
27612;SDS011;15036;48.094;-1.690;2023-07-13T02:57:10;6.15;;;2.58;;
27612;SDS011;15036;48.094;-1.690;2023-07-13T02:59:35;8.90;;;2.70;;
27612;SDS011;15036;48.094;-1.690;2023-07-13T03:02:01;7.90;;;3.30;;
27612;SDS011;15036;48.094;-1.690;2023-07-13T03:04:27;6.50;;;2.40;;
27612;SDS011;15036;48.094;-1.690;2023-07-13T03:06:53;9.55;;;3.10;;
27612;SDS011;15036;48.094;-1.690;2023-07-13T03:09:22;9.68;;;3.42;;
27612;SDS011;15036;48.094;-1.690;2023-07-13T03:11:48;8.32;;;2.97;;
27612;SDS011;15036;48.094;-1.690;2023-07-13T03:14:13;6.63;;;2.90;;
27612;SDS011;15036;48.094;-1.690;2023-07-13T03:16:38;7.72;;;2.60;;
27612;SDS011;15036;48.094;-1.690;2023-07-13T03:19:04;8.80;;;3.00;;
27612;SDS011;15036;48.094;-1.690;2023-07-13T03:21:30;8.13;;;3.08;;
27612;SDS011;15036;48.094;-1.690;2023-07-13T03:23:56;7.70;;;2.83;;
27612;SDS011;15036;48.094;-1.690;2023-07-13T03:26:21;8.63;;;2.80;;
27612;SDS011;15036;48.094;-1.690;2023-07-13T03:28:47;11.65;;;2.97;;
27612;SDS011;15036;48.094;-1.690;2023-07-13T03:31:14;7.78;;;2.92;;
27612;SDS011;15036;48.094;-1.690;2023-07-13T03:33:42;10.63;;;3.38;;
27612;SDS011;15036;48.094;-1.690;2023-07-13T03:36:14;7.10;;;2.65;;
27612;SDS011;15036;48.094;-1.690;2023-07-13T03:38:55;7.85;;;2.78;;
27612;SDS011;15036;48.094;-1.690;2023-07-13T03:41:23;7.00;;;3.00;;
27612;SDS011;15036;48.094;-1.690;2023-07-13T03:43:50;6.63;;;2.83;;
27612;SDS011;15036;48.094;-1.690;2023-07-13T03:46:16;11.85;;;3.50;;
27612;SDS011;15036;48.094;-1.690;2023-07-13T03:48:43;7.53;;;2.83;;
27612;SDS011;15036;48.094;-1.690;2023-07-13T03:51:10;5.38;;;2.83;;
27612;SDS011;15036;48.094;-1.690;2023-07-13T03:53:38;8.45;;;2.90;;
27612;SDS011;15036;48.094;-1.690;2023-07-13T03:56:05;9.60;;;3.00;;
27612;SDS011;15036;48.094;-1.690;2023-07-13T04:01:00;9.80;;;2.90;;
27612;SDS011;15036;48.094;-1.690;2023-07-13T04:03:28;9.38;;;2.95;;
27612;SDS011;15036;48.094;-1.690;2023-07-13T04:05:55;8.00;;;3.03;;
27612;SDS011;15036;48.094;-1.690;2023-07-13T04:08:25;10.25;;;3.30;;
27612;SDS011;15036;48.094;-1.690;2023-07-13T04:10:54;11.95;;;3.30;;
27612;SDS011;15036;48.094;-1.690;2023-07-13T04:13:20;8.32;;;3.13;;
27612;SDS011;15036;48.094;-1.690;2023-07-13T04:15:45;8.95;;;3.13;;
27612;SDS011;15036;48.094;-1.690;2023-07-13T04:18:11;7.97;;;3.03;;
27612;SDS011;15036;48.094;-1.690;2023-07-13T04:20:36;10.35;;;3.10;;
27612;SDS011;15036;48.094;-1.690;2023-07-13T04:23:01;8.77;;;3.17;;
27612;SDS011;15036;48.094;-1.690;2023-07-13T04:25:27;7.18;;;2.70;;
27612;SDS011;15036;48.094;-1.690;2023-07-13T04:27:53;7.32;;;2.97;;
27612;SDS011;15036;48.094;-1.690;2023-07-13T04:30:19;7.80;;;3.08;;
27612;SDS011;15036;48.094;-1.690;2023-07-13T04:32:45;8.75;;;3.58;;
27612;SDS011;15036;48.094;-1.690;2023-07-13T04:35:11;8.60;;;3.00;;
27612;SDS011;15036;48.094;-1.690;2023-07-13T04:37:36;10.20;;;3.53;;
27612;SDS011;15036;48.094;-1.690;2023-07-13T04:40:02;12.35;;;3.20;;
27612;SDS011;15036;48.094;-1.690;2023-07-13T04:42:29;9.82;;;3.20;;
27612;SDS011;15036;48.094;-1.690;2023-07-13T04:44:55;11.65;;;3.45;;
27612;SDS011;15036;48.094;-1.690;2023-07-13T04:47:20;8.32;;;3.65;;
27612;SDS011;15036;48.094;-1.690;2023-07-13T04:49:46;10.45;;;3.33;;
27612;SDS011;15036;48.094;-1.690;2023-07-13T04:52:11;8.25;;;3.05;;
27612;SDS011;15036;48.094;-1.690;2023-07-13T04:54:37;7.55;;;2.78;;
27612;SDS011;15036;48.094;-1.690;2023-07-13T04:57:05;8.38;;;2.85;;
27612;SDS011;15036;48.094;-1.690;2023-07-13T04:59:31;10.02;;;3.03;;
27612;SDS011;15036;48.094;-1.690;2023-07-13T05:01:57;7.80;;;3.10;;
27612;SDS011;15036;48.094;-1.690;2023-07-13T05:04:23;11.65;;;3.72;;
27612;SDS011;15036;48.094;-1.690;2023-07-13T05:06:49;10.18;;;3.22;;
27612;SDS011;15036;48.094;-1.690;2023-07-13T05:09:14;9.55;;;3.25;;
27612;SDS011;15036;48.094;-1.690;2023-07-13T05:11:39;8.75;;;3.47;;
27612;SDS011;15036;48.094;-1.690;2023-07-13T05:14:05;10.82;;;3.30;;
27612;SDS011;15036;48.094;-1.690;2023-07-13T05:16:30;8.70;;;3.40;;
27612;SDS011;15036;48.094;-1.690;2023-07-13T05:18:57;8.88;;;3.03;;
27612;SDS011;15036;48.094;-1.690;2023-07-13T05:21:22;10.13;;;3.00;;
27612;SDS011;15036;48.094;-1.690;2023-07-13T05:23:48;10.43;;;3.50;;
27612;SDS011;15036;48.094;-1.690;2023-07-13T05:26:13;9.90;;;3.38;;
27612;SDS011;15036;48.094;-1.690;2023-07-13T05:28:39;7.85;;;3.20;;
27612;SDS011;15036;48.094;-1.690;2023-07-13T05:31:06;8.43;;;3.33;;
27612;SDS011;15036;48.094;-1.690;2023-07-13T05:33:32;7.05;;;3.00;;
27612;SDS011;15036;48.094;-1.690;2023-07-13T05:35:58;7.88;;;3.20;;
27612;SDS011;15036;48.094;-1.690;2023-07-13T05:38:25;9.10;;;3.25;;
27612;SDS011;15036;48.094;-1.690;2023-07-13T05:40:51;9.13;;;3.17;;
27612;SDS011;15036;48.094;-1.690;2023-07-13T05:43:18;10.35;;;3.55;;
27612;SDS011;15036;48.094;-1.690;2023-07-13T05:45:43;6.93;;;3.15;;
27612;SDS011;15036;48.094;-1.690;2023-07-13T05:48:09;10.30;;;3.40;;
27612;SDS011;15036;48.094;-1.690;2023-07-13T05:50:34;9.93;;;3.38;;
27612;SDS011;15036;48.094;-1.690;2023-07-13T05:52:59;11.98;;;3.40;;
27612;SDS011;15036;48.094;-1.690;2023-07-13T05:55:25;13.55;;;3.47;;
27612;SDS011;15036;48.094;-1.690;2023-07-13T05:57:50;9.40;;;3.30;;
27612;SDS011;15036;48.094;-1.690;2023-07-13T06:00:16;8.98;;;3.42;;
27612;SDS011;15036;48.094;-1.690;2023-07-13T06:02:41;9.70;;;3.85;;
27612;SDS011;15036;48.094;-1.690;2023-07-13T06:05:07;8.95;;;3.25;;
27612;SDS011;15036;48.094;-1.690;2023-07-13T06:07:33;7.38;;;2.88;;
27612;SDS011;15036;48.094;-1.690;2023-07-13T06:09:58;9.70;;;3.53;;
27612;SDS011;15036;48.094;-1.690;2023-07-13T06:12:24;11.95;;;3.50;;
27612;SDS011;15036;48.094;-1.690;2023-07-13T06:14:50;7.95;;;3.10;;
27612;SDS011;15036;48.094;-1.690;2023-07-13T06:17:15;9.55;;;3.25;;
27612;SDS011;15036;48.094;-1.690;2023-07-13T06:19:40;9.93;;;3.45;;
27612;SDS011;15036;48.094;-1.690;2023-07-13T06:22:06;5.70;;;3.03;;
27612;SDS011;15036;48.094;-1.690;2023-07-13T06:24:31;8.45;;;3.40;;
27612;SDS011;15036;48.094;-1.690;2023-07-13T06:26:57;9.25;;;3.08;;
27612;SDS011;15036;48.094;-1.690;2023-07-13T06:29:22;10.13;;;3.28;;
27612;SDS011;15036;48.094;-1.690;2023-07-13T06:31:47;8.07;;;2.90;;
27612;SDS011;15036;48.094;-1.690;2023-07-13T06:34:13;9.18;;;3.20;;
27612;SDS011;15036;48.094;-1.690;2023-07-13T06:36:38;8.43;;;2.95;;
27612;SDS011;15036;48.094;-1.690;2023-07-13T06:39:04;7.30;;;2.90;;
27612;SDS011;15036;48.094;-1.690;2023-07-13T06:41:29;9.48;;;3.38;;
27612;SDS011;15036;48.094;-1.690;2023-07-13T06:43:55;10.95;;;3.42;;
27612;SDS011;15036;48.094;-1.690;2023-07-13T06:46:21;10.45;;;3.22;;
27612;SDS011;15036;48.094;-1.690;2023-07-13T06:48:47;10.90;;;3.33;;
27612;SDS011;15036;48.094;-1.690;2023-07-13T06:51:13;8.70;;;2.92;;
27612;SDS011;15036;48.094;-1.690;2023-07-13T06:53:39;7.43;;;2.85;;
27612;SDS011;15036;48.094;-1.690;2023-07-13T06:56:04;8.30;;;2.88;;
27612;SDS011;15036;48.094;-1.690;2023-07-13T06:58:30;8.27;;;3.20;;
27612;SDS011;15036;48.094;-1.690;2023-07-13T07:00:56;8.60;;;2.88;;
27612;SDS011;15036;48.094;-1.690;2023-07-13T07:03:21;12.50;;;3.28;;
27612;SDS011;15036;48.094;-1.690;2023-07-13T07:05:47;9.93;;;2.78;;
27612;SDS011;15036;48.094;-1.690;2023-07-13T07:08:12;8.30;;;3.22;;
27612;SDS011;15036;48.094;-1.690;2023-07-13T07:10:38;7.53;;;3.22;;
27612;SDS011;15036;48.094;-1.690;2023-07-13T07:13:03;7.97;;;2.97;;
27612;SDS011;15036;48.094;-1.690;2023-07-13T07:15:29;9.30;;;3.20;;
27612;SDS011;15036;48.094;-1.690;2023-07-13T07:17:54;8.10;;;3.35;;
27612;SDS011;15036;48.094;-1.690;2023-07-13T07:20:20;10.85;;;3.17;;
27612;SDS011;15036;48.094;-1.690;2023-07-13T07:22:46;11.90;;;3.25;;
27612;SDS011;15036;48.094;-1.690;2023-07-13T07:25:12;7.30;;;2.80;;
27612;SDS011;15036;48.094;-1.690;2023-07-13T07:27:37;7.25;;;2.78;;
27612;SDS011;15036;48.094;-1.690;2023-07-13T07:30:04;8.50;;;2.92;;
27612;SDS011;15036;48.094;-1.690;2023-07-13T07:32:30;6.43;;;2.85;;
27612;SDS011;15036;48.094;-1.690;2023-07-13T07:34:59;10.63;;;3.40;;
27612;SDS011;15036;48.094;-1.690;2023-07-13T07:37:24;7.75;;;3.53;;
27612;SDS011;15036;48.094;-1.690;2023-07-13T07:39:50;9.98;;;3.80;;
27612;SDS011;15036;48.094;-1.690;2023-07-13T07:42:15;8.93;;;2.90;;
27612;SDS011;15036;48.094;-1.690;2023-07-13T07:44:41;9.32;;;3.50;;
27612;SDS011;15036;48.094;-1.690;2023-07-13T07:47:07;7.13;;;3.10;;
27612;SDS011;15036;48.094;-1.690;2023-07-13T07:49:35;10.18;;;3.10;;
27612;SDS011;15036;48.094;-1.690;2023-07-13T07:52:01;6.88;;;2.67;;
27612;SDS011;15036;48.094;-1.690;2023-07-13T07:54:26;10.95;;;3.10;;
27612;SDS011;15036;48.094;-1.690;2023-07-13T07:56:52;8.90;;;2.90;;
27612;SDS011;15036;48.094;-1.690;2023-07-13T07:59:17;7.68;;;3.13;;
27612;SDS011;15036;48.094;-1.690;2023-07-13T08:01:42;8.68;;;2.75;;
27612;SDS011;15036;48.094;-1.690;2023-07-13T08:04:08;9.23;;;3.08;;
27612;SDS011;15036;48.094;-1.690;2023-07-13T08:06:34;9.15;;;3.20;;
27612;SDS011;15036;48.094;-1.690;2023-07-13T08:09:00;6.65;;;3.08;;
27612;SDS011;15036;48.094;-1.690;2023-07-13T08:11:26;10.60;;;3.55;;
27612;SDS011;15036;48.094;-1.690;2023-07-13T08:13:51;8.32;;;2.70;;
27612;SDS011;15036;48.094;-1.690;2023-07-13T08:16:17;8.75;;;2.78;;
27612;SDS011;15036;48.094;-1.690;2023-07-13T08:18:42;8.43;;;2.78;;
27612;SDS011;15036;48.094;-1.690;2023-07-13T08:21:08;7.45;;;2.63;;
27612;SDS011;15036;48.094;-1.690;2023-07-13T08:23:34;6.93;;;2.72;;
27612;SDS011;15036;48.094;-1.690;2023-07-13T08:26:00;9.50;;;3.05;;
27612;SDS011;15036;48.094;-1.690;2023-07-13T08:28:29;8.60;;;3.00;;
27612;SDS011;15036;48.094;-1.690;2023-07-13T08:30:59;8.07;;;2.65;;
27612;SDS011;15036;48.094;-1.690;2023-07-13T08:33:25;11.50;;;2.58;;
27612;SDS011;15036;48.094;-1.690;2023-07-13T08:35:51;7.65;;;2.42;;
27612;SDS011;15036;48.094;-1.690;2023-07-13T08:38:16;6.57;;;2.50;;
27612;SDS011;15036;48.094;-1.690;2023-07-13T08:40:43;6.90;;;2.17;;
27612;SDS011;15036;48.094;-1.690;2023-07-13T08:43:13;7.57;;;2.35;;
27612;SDS011;15036;48.094;-1.690;2023-07-13T08:53:56;3.80;;;1.83;;
27612;SDS011;15036;48.094;-1.690;2023-07-13T08:56:25;4.93;;;2.03;;
27612;SDS011;15036;48.094;-1.690;2023-07-13T08:59:13;5.18;;;1.90;;
27612;SDS011;15036;48.094;-1.690;2023-07-13T09:04:42;5.30;;;1.60;;
27612;SDS011;15036;48.094;-1.690;2023-07-13T09:10:26;6.38;;;1.60;;
27612;SDS011;15036;48.094;-1.690;2023-07-13T09:15:27;4.13;;;1.50;;
27612;SDS011;15036;48.094;-1.690;2023-07-13T09:17:57;3.85;;;1.52;;
27612;SDS011;15036;48.094;-1.690;2023-07-13T09:23:00;4.30;;;1.50;;
27612;SDS011;15036;48.094;-1.690;2023-07-13T09:25:31;5.57;;;1.67;;
27612;SDS011;15036;48.094;-1.690;2023-07-13T09:30:46;6.07;;;1.83;;
27612;SDS011;15036;48.094;-1.690;2023-07-13T09:33:50;3.33;;;1.45;;
27612;SDS011;15036;48.094;-1.690;2023-07-13T09:36:17;3.05;;;1.45;;
27612;SDS011;15036;48.094;-1.690;2023-07-13T09:38:44;5.32;;;1.60;;
27612;SDS011;15036;48.094;-1.690;2023-07-13T09:41:29;3.80;;;1.67;;
27612;SDS011;15036;48.094;-1.690;2023-07-13T09:44:07;4.85;;;1.60;;
27612;SDS011;15036;48.094;-1.690;2023-07-13T09:46:35;4.60;;;1.70;;
27612;SDS011;15036;48.094;-1.690;2023-07-13T09:49:01;2.88;;;1.38;;
27612;SDS011;15036;48.094;-1.690;2023-07-13T09:51:26;3.58;;;1.48;;
27612;SDS011;15036;48.094;-1.690;2023-07-13T09:53:52;5.22;;;1.75;;
27612;SDS011;15036;48.094;-1.690;2023-07-13T09:56:22;4.38;;;1.52;;
27612;SDS011;15036;48.094;-1.690;2023-07-13T09:58:50;5.57;;;1.77;;
27612;SDS011;15036;48.094;-1.690;2023-07-13T10:01:15;4.75;;;1.80;;
27612;SDS011;15036;48.094;-1.690;2023-07-13T10:03:51;3.22;;;1.52;;
27612;SDS011;15036;48.094;-1.690;2023-07-13T10:06:19;5.63;;;1.80;;
27612;SDS011;15036;48.094;-1.690;2023-07-13T10:08:51;3.60;;;1.58;;
27612;SDS011;15036;48.094;-1.690;2023-07-13T10:13:53;5.28;;;1.77;;
27612;SDS011;15036;48.094;-1.690;2023-07-13T10:16:34;4.63;;;1.63;;
27612;SDS011;15036;48.094;-1.690;2023-07-13T10:19:02;3.95;;;1.52;;
27612;SDS011;15036;48.094;-1.690;2023-07-13T10:21:49;4.75;;;1.90;;
27612;SDS011;15036;48.094;-1.690;2023-07-13T10:24:36;4.47;;;1.73;;
27612;SDS011;15036;48.094;-1.690;2023-07-13T10:27:20;4.28;;;1.48;;
27612;SDS011;15036;48.094;-1.690;2023-07-13T10:32:39;3.45;;;1.40;;
27612;SDS011;15036;48.094;-1.690;2023-07-13T10:35:05;4.70;;;1.50;;
27612;SDS011;15036;48.094;-1.690;2023-07-13T10:37:45;4.20;;;1.77;;
27612;SDS011;15036;48.094;-1.690;2023-07-13T10:40:14;3.13;;;1.60;;
27612;SDS011;15036;48.094;-1.690;2023-07-13T10:42:45;3.05;;;1.52;;
27612;SDS011;15036;48.094;-1.690;2023-07-13T10:45:22;4.43;;;1.50;;
27612;SDS011;15036;48.094;-1.690;2023-07-13T10:47:49;2.50;;;1.30;;
27612;SDS011;15036;48.094;-1.690;2023-07-13T10:50:21;2.95;;;1.50;;
27612;SDS011;15036;48.094;-1.690;2023-07-13T10:53:00;3.25;;;1.60;;
27612;SDS011;15036;48.094;-1.690;2023-07-13T10:58:10;3.42;;;1.80;;
27612;SDS011;15036;48.094;-1.690;2023-07-13T11:06:12;2.90;;;1.50;;
27612;SDS011;15036;48.094;-1.690;2023-07-13T11:21:26;3.55;;;1.80;;
27612;SDS011;15036;48.094;-1.690;2023-07-13T11:24:03;3.75;;;1.52;;
27612;SDS011;15036;48.094;-1.690;2023-07-13T11:31:40;5.50;;;1.50;;
27612;SDS011;15036;48.094;-1.690;2023-07-13T11:34:18;3.97;;;1.38;;
27612;SDS011;15036;48.094;-1.690;2023-07-13T11:36:51;4.68;;;1.75;;
27612;SDS011;15036;48.094;-1.690;2023-07-13T11:39:18;5.35;;;1.83;;
27612;SDS011;15036;48.094;-1.690;2023-07-13T11:41:50;3.05;;;1.60;;
27612;SDS011;15036;48.094;-1.690;2023-07-13T11:44:22;4.03;;;1.92;;
27612;SDS011;15036;48.094;-1.690;2023-07-13T11:47:31;3.58;;;1.75;;
27612;SDS011;15036;48.094;-1.690;2023-07-13T11:49:48;3.50;;;1.60;;
27612;SDS011;15036;48.094;-1.690;2023-07-13T11:52:19;5.15;;;1.67;;
27612;SDS011;15036;48.094;-1.690;2023-07-13T11:54:53;3.75;;;1.60;;
27612;SDS011;15036;48.094;-1.690;2023-07-13T11:59:52;3.30;;;1.77;;
27612;SDS011;15036;48.094;-1.690;2023-07-13T12:02:27;6.22;;;1.83;;
27612;SDS011;15036;48.094;-1.690;2023-07-13T12:04:56;3.08;;;1.70;;
27612;SDS011;15036;48.094;-1.690;2023-07-13T12:07:22;5.18;;;1.58;;
27612;SDS011;15036;48.094;-1.690;2023-07-13T12:09:48;5.32;;;1.60;;
27612;SDS011;15036;48.094;-1.690;2023-07-13T12:12:21;3.08;;;1.55;;
27612;SDS011;15036;48.094;-1.690;2023-07-13T12:14:51;3.45;;;1.50;;
27612;SDS011;15036;48.094;-1.690;2023-07-13T12:17:23;4.00;;;1.50;;
27612;SDS011;15036;48.094;-1.690;2023-07-13T12:19:51;2.72;;;1.50;;
27612;SDS011;15036;48.094;-1.690;2023-07-13T12:22:18;4.13;;;1.70;;
27612;SDS011;15036;48.094;-1.690;2023-07-13T12:24:45;3.95;;;1.70;;
27612;SDS011;15036;48.094;-1.690;2023-07-13T12:27:26;4.65;;;1.75;;
27612;SDS011;15036;48.094;-1.690;2023-07-13T12:29:58;3.55;;;1.60;;
27612;SDS011;15036;48.094;-1.690;2023-07-13T12:32:26;4.90;;;1.73;;
27612;SDS011;15036;48.094;-1.690;2023-07-13T12:34:53;3.13;;;1.92;;
27612;SDS011;15036;48.094;-1.690;2023-07-13T12:37:19;8.52;;;1.85;;
27612;SDS011;15036;48.094;-1.690;2023-07-13T12:39:48;5.07;;;2.00;;
27612;SDS011;15036;48.094;-1.690;2023-07-13T12:42:25;3.30;;;1.50;;
27612;SDS011;15036;48.094;-1.690;2023-07-13T12:44:57;6.95;;;1.75;;
27612;SDS011;15036;48.094;-1.690;2023-07-13T12:47:26;4.85;;;1.70;;
27612;SDS011;15036;48.094;-1.690;2023-07-13T12:49:59;4.60;;;1.67;;
27612;SDS011;15036;48.094;-1.690;2023-07-13T12:52:33;4.97;;;1.73;;
27612;SDS011;15036;48.094;-1.690;2023-07-13T12:55:13;3.50;;;1.90;;
27612;SDS011;15036;48.094;-1.690;2023-07-13T12:57:43;4.13;;;1.90;;
27612;SDS011;15036;48.094;-1.690;2023-07-13T13:02:50;5.60;;;1.95;;
27612;SDS011;15036;48.094;-1.690;2023-07-13T13:05:17;4.45;;;1.67;;
27612;SDS011;15036;48.094;-1.690;2023-07-13T13:07:43;4.75;;;1.73;;
27612;SDS011;15036;48.094;-1.690;2023-07-13T13:10:11;4.38;;;1.90;;
27612;SDS011;15036;48.094;-1.690;2023-07-13T13:12:38;4.63;;;1.90;;
27612;SDS011;15036;48.094;-1.690;2023-07-13T13:15:04;4.13;;;1.85;;
27612;SDS011;15036;48.094;-1.690;2023-07-13T13:17:31;3.67;;;1.67;;
27612;SDS011;15036;48.094;-1.690;2023-07-13T13:19:57;3.78;;;1.95;;
27612;SDS011;15036;48.094;-1.690;2023-07-13T13:22:23;4.40;;;1.75;;
27612;SDS011;15036;48.094;-1.690;2023-07-13T13:24:48;3.00;;;1.65;;
27612;SDS011;15036;48.094;-1.690;2023-07-13T13:27:17;3.10;;;1.70;;
27612;SDS011;15036;48.094;-1.690;2023-07-13T13:29:46;3.55;;;1.90;;
27612;SDS011;15036;48.094;-1.690;2023-07-13T13:32:14;3.25;;;1.60;;
27612;SDS011;15036;48.094;-1.690;2023-07-13T13:34:40;4.65;;;1.65;;
27612;SDS011;15036;48.094;-1.690;2023-07-13T13:37:16;3.92;;;1.85;;
27612;SDS011;15036;48.094;-1.690;2023-07-13T13:39:44;4.72;;;2.13;;
27612;SDS011;15036;48.094;-1.690;2023-07-13T13:42:10;3.55;;;1.83;;
27612;SDS011;15036;48.094;-1.690;2023-07-13T13:44:35;3.15;;;1.65;;
27612;SDS011;15036;48.094;-1.690;2023-07-13T13:47:01;3.97;;;1.92;;
27612;SDS011;15036;48.094;-1.690;2023-07-13T13:49:27;3.15;;;1.85;;
27612;SDS011;15036;48.094;-1.690;2023-07-13T13:51:53;3.28;;;1.73;;
27612;SDS011;15036;48.094;-1.690;2023-07-13T13:54:20;5.38;;;2.00;;
27612;SDS011;15036;48.094;-1.690;2023-07-13T13:56:48;4.57;;;2.05;;
27612;SDS011;15036;48.094;-1.690;2023-07-13T13:59:15;4.85;;;1.90;;
27612;SDS011;15036;48.094;-1.690;2023-07-13T14:01:41;4.03;;;1.85;;
27612;SDS011;15036;48.094;-1.690;2023-07-13T14:04:14;3.80;;;1.70;;
27612;SDS011;15036;48.094;-1.690;2023-07-13T14:06:42;2.80;;;1.55;;
27612;SDS011;15036;48.094;-1.690;2023-07-13T14:09:11;4.45;;;2.10;;
27612;SDS011;15036;48.094;-1.690;2023-07-13T14:11:38;3.33;;;1.88;;
27612;SDS011;15036;48.094;-1.690;2023-07-13T14:14:08;5.60;;;1.70;;
27612;SDS011;15036;48.094;-1.690;2023-07-13T14:16:55;3.88;;;1.70;;
27612;SDS011;15036;48.094;-1.690;2023-07-13T14:19:21;4.50;;;1.90;;
27612;SDS011;15036;48.094;-1.690;2023-07-13T14:21:47;4.35;;;1.60;;
27612;SDS011;15036;48.094;-1.690;2023-07-13T14:24:14;4.90;;;2.10;;
27612;SDS011;15036;48.094;-1.690;2023-07-13T14:26:40;3.47;;;1.80;;
27612;SDS011;15036;48.094;-1.690;2023-07-13T14:29:12;5.03;;;1.80;;
27612;SDS011;15036;48.094;-1.690;2023-07-13T14:31:40;2.60;;;1.70;;
27612;SDS011;15036;48.094;-1.690;2023-07-13T14:34:05;3.35;;;1.60;;
27612;SDS011;15036;48.094;-1.690;2023-07-13T14:36:37;3.90;;;1.58;;
27612;SDS011;15036;48.094;-1.690;2023-07-13T14:39:10;4.03;;;1.98;;
27612;SDS011;15036;48.094;-1.690;2023-07-13T14:41:41;3.70;;;1.90;;
27612;SDS011;15036;48.094;-1.690;2023-07-13T14:44:14;4.45;;;1.90;;
27612;SDS011;15036;48.094;-1.690;2023-07-13T14:46:45;4.40;;;1.73;;
27612;SDS011;15036;48.094;-1.690;2023-07-13T14:52:01;5.30;;;1.75;;
27612;SDS011;15036;48.094;-1.690;2023-07-13T14:54:35;4.53;;;2.00;;
27612;SDS011;15036;48.094;-1.690;2023-07-13T14:57:05;6.20;;;1.80;;
27612;SDS011;15036;48.094;-1.690;2023-07-13T14:59:34;4.40;;;2.10;;
27612;SDS011;15036;48.094;-1.690;2023-07-13T15:02:00;3.92;;;1.55;;
27612;SDS011;15036;48.094;-1.690;2023-07-13T15:04:26;5.53;;;2.17;;
27612;SDS011;15036;48.094;-1.690;2023-07-13T15:06:52;5.43;;;2.10;;
27612;SDS011;15036;48.094;-1.690;2023-07-13T15:09:26;5.55;;;2.00;;
27612;SDS011;15036;48.094;-1.690;2023-07-13T15:11:54;4.05;;;1.75;;
27612;SDS011;15036;48.094;-1.690;2023-07-13T15:14:20;4.13;;;1.95;;
27612;SDS011;15036;48.094;-1.690;2023-07-13T15:16:46;3.33;;;1.70;;
27612;SDS011;15036;48.094;-1.690;2023-07-13T15:19:14;3.58;;;2.00;;
27612;SDS011;15036;48.094;-1.690;2023-07-13T15:21:41;3.53;;;1.77;;
27612;SDS011;15036;48.094;-1.690;2023-07-13T15:24:08;3.97;;;2.03;;
27612;SDS011;15036;48.094;-1.690;2023-07-13T15:26:34;2.78;;;1.70;;
27612;SDS011;15036;48.094;-1.690;2023-07-13T15:29:00;4.70;;;1.92;;
27612;SDS011;15036;48.094;-1.690;2023-07-13T15:31:26;3.80;;;1.48;;
27612;SDS011;15036;48.094;-1.690;2023-07-13T15:33:53;4.97;;;1.98;;
27612;SDS011;15036;48.094;-1.690;2023-07-13T15:36:20;7.47;;;1.90;;
27612;SDS011;15036;48.094;-1.690;2023-07-13T15:38:47;4.78;;;2.00;;
27612;SDS011;15036;48.094;-1.690;2023-07-13T15:41:19;3.50;;;1.67;;
27612;SDS011;15036;48.094;-1.690;2023-07-13T15:43:50;4.50;;;2.00;;